Time;durP1;ratioP1;P1;durP2;ratioP2;P2;SDS_P1;SDS_P2;PMS_P1;PMS_P2;Temp;Humidity;BMP_temperature;BMP_pressure;BME280_temperature;BME280_humidity;BME280_pressure;Samples;Min_cycle;Max_cycle;Signal;HPM_P1;HPM_P2
2023/04/19 00:00:17;;;;;;;12.40;9.05;;;11.50;72.50;;;;;;5063073;28;20028;-68
2023/04/19 00:02:43;;;;;;;10.18;8.55;;;11.50;72.50;;;;;;5039351;28;20032;-69
2023/04/19 00:05:10;;;;;;;11.05;8.38;;;11.50;72.50;;;;;;5043608;28;20107;-67
2023/04/19 00:07:36;;;;;;;12.27;9.55;;;11.60;72.50;;;;;;5056728;28;20544;-68
2023/04/19 00:10:02;;;;;;;9.05;7.57;;;11.50;72.80;;;;;;5048839;28;20116;-67
2023/04/19 00:12:27;;;;;;;9.50;7.35;;;11.50;72.70;;;;;;5049390;28;20388;-67
2023/04/19 00:14:53;;;;;;;12.52;9.43;;;11.50;72.80;;;;;;5051285;28;20033;-69
2023/04/19 00:17:18;;;;;;;12.57;10.57;;;11.40;73.20;;;;;;5032212;28;20059;-69
2023/04/19 00:19:44;;;;;;;11.63;9.15;;;11.40;73.60;;;;;;5049889;28;20487;-68
2023/04/19 00:22:10;;;;;;;11.80;8.82;;;11.40;73.80;;;;;;5049618;28;20021;-67
2023/04/19 00:24:35;;;;;;;10.02;7.57;;;11.40;73.80;;;;;;5054477;28;20024;-67
2023/04/19 00:27:01;;;;;;;11.25;9.50;;;11.30;73.70;;;;;;5066640;28;20027;-67
2023/04/19 00:29:27;;;;;;;11.70;9.40;;;11.30;73.80;;;;;;5052643;28;20024;-66
2023/04/19 00:31:52;;;;;;;10.57;8.73;;;11.30;74.20;;;;;;5056950;28;20029;-67
2023/04/19 00:34:18;;;;;;;12.18;9.93;;;11.30;74.10;;;;;;5055063;28;20059;-67
2023/04/19 00:36:43;;;;;;;13.00;9.82;;;11.20;74.40;;;;;;5073405;28;20056;-67
2023/04/19 00:39:09;;;;;;;10.35;8.45;;;11.10;75.00;;;;;;5055423;28;20037;-68
2023/04/19 00:41:34;;;;;;;12.88;9.43;;;11.10;75.10;;;;;;5070464;28;20031;-66
2023/04/19 00:44:00;;;;;;;17.45;12.55;;;11.10;75.00;;;;;;5053346;28;20033;-67
2023/04/19 00:46:26;;;;;;;11.60;8.57;;;11.00;75.10;;;;;;5071324;28;20040;-67
2023/04/19 00:48:52;;;;;;;10.15;8.43;;;11.00;75.10;;;;;;5057998;28;20033;-68
2023/04/19 00:51:19;;;;;;;9.85;7.85;;;11.10;75.10;;;;;;5059104;28;20437;-68
2023/04/19 00:53:45;;;;;;;8.30;6.90;;;11.10;75.00;;;;;;5052855;28;20037;-67
2023/04/19 00:56:12;;;;;;;9.75;8.20;;;11.10;74.80;;;;;;5054160;28;20099;-67
2023/04/19 00:58:38;;;;;;;11.55;9.57;;;11.10;74.70;;;;;;5052862;28;20024;-65
2023/04/19 01:01:05;;;;;;;10.15;8.77;;;11.00;74.80;;;;;;5066844;28;20024;-66
2023/04/19 01:03:30;;;;;;;12.07;9.10;;;11.00;75.20;;;;;;5063711;28;20083;-67
2023/04/19 01:05:56;;;;;;;12.38;9.73;;;11.00;75.40;;;;;;5046829;28;20452;-68
2023/04/19 01:08:23;;;;;;;11.45;8.25;;;10.90;75.60;;;;;;5059955;28;20033;-66
2023/04/19 01:10:48;;;;;;;10.18;8.13;;;11.00;75.50;;;;;;5036365;28;20036;-68
2023/04/19 01:13:14;;;;;;;12.70;9.77;;;11.00;75.40;;;;;;5052361;28;20033;-72
2023/04/19 01:15:40;;;;;;;11.48;8.55;;;10.90;75.70;;;;;;5060893;28;20025;-68
2023/04/19 01:18:05;;;;;;;11.40;9.07;;;11.00;75.90;;;;;;5060267;28;20021;-68
2023/04/19 01:20:31;;;;;;;10.13;8.48;;;10.90;76.20;;;;;;5053171;28;20548;-68
2023/04/19 01:22:56;;;;;;;9.98;8.57;;;10.90;76.30;;;;;;5064440;28;20028;-66
2023/04/19 01:25:22;;;;;;;12.57;9.30;;;10.90;76.30;;;;;;5055570;28;20029;-67
2023/04/19 01:27:47;;;;;;;10.45;8.23;;;10.90;76.50;;;;;;5063936;28;20475;-67
2023/04/19 01:30:13;;;;;;;10.48;7.93;;;10.90;76.70;;;;;;5052814;28;20044;-67
2023/04/19 01:32:39;;;;;;;12.07;9.10;;;10.90;76.50;;;;;;5072515;28;20028;-66
2023/04/19 01:35:05;;;;;;;13.70;9.90;;;10.80;76.90;;;;;;5037689;28;20029;-68
2023/04/19 01:37:34;;;;;;;11.10;8.52;;;10.70;77.10;;;;;;5065243;28;20021;-68
2023/04/19 01:40:00;;;;;;;11.98;8.82;;;10.70;77.10;;;;;;5052384;28;20035;-67
2023/04/19 01:42:25;;;;;;;12.30;9.82;;;10.70;77.10;;;;;;5070485;28;20032;-66
2023/04/19 01:44:51;;;;;;;10.23;8.00;;;10.70;77.30;;;;;;5057659;28;20037;-66
2023/04/19 01:47:17;;;;;;;13.90;9.90;;;10.70;77.20;;;;;;5065050;28;20037;-69
2023/04/19 01:49:42;;;;;;;10.63;8.07;;;10.70;77.50;;;;;;5055416;28;20057;-68
2023/04/19 01:52:08;;;;;;;10.05;7.95;;;10.70;77.40;;;;;;5052297;28;20025;-68
2023/04/19 01:54:33;;;;;;;9.38;7.75;;;10.70;77.50;;;;;;5051425;28;20040;-67
2023/04/19 01:56:59;;;;;;;10.05;8.38;;;10.60;77.60;;;;;;5051990;28;20021;-68
2023/04/19 01:59:24;;;;;;;10.75;7.60;;;10.50;77.80;;;;;;5054213;28;20028;-67
2023/04/19 02:01:50;;;;;;;10.45;8.40;;;10.60;77.90;;;;;;5061613;28;20383;-66
2023/04/19 02:04:17;;;;;;;11.32;9.00;;;10.50;78.10;;;;;;5047502;28;20025;-67
2023/04/19 02:06:43;;;;;;;10.57;7.15;;;10.50;78.30;;;;;;5061684;28;20025;-68
2023/04/19 02:09:08;;;;;;;11.68;8.43;;;10.50;78.10;;;;;;5066675;28;20085;-66
2023/04/19 02:11:34;;;;;;;13.32;8.63;;;10.50;78.20;;;;;;5051805;28;20522;-67
2023/04/19 02:13:59;;;;;;;9.88;8.52;;;10.50;78.20;;;;;;5051833;28;20028;-68
2023/04/19 02:16:25;;;;;;;8.48;6.90;;;10.50;78.30;;;;;;5055000;28;20029;-67
2023/04/19 02:18:50;;;;;;;11.80;8.15;;;10.50;78.00;;;;;;5051267;28;20029;-69
2023/04/19 02:21:16;;;;;;;11.55;8.68;;;10.50;77.90;;;;;;5055989;28;20021;-68
2023/04/19 02:23:41;;;;;;;9.40;7.63;;;10.50;78.20;;;;;;5065034;28;20056;-67
2023/04/19 02:26:07;;;;;;;10.50;8.77;;;10.50;78.20;;;;;;5053791;28;20114;-67
2023/04/19 02:28:33;;;;;;;10.40;7.30;;;10.50;78.40;;;;;;5071016;28;20081;-68
2023/04/19 02:31:02;;;;;;;10.40;8.32;;;10.60;78.30;;;;;;5063606;28;20123;-67
2023/04/19 02:33:28;;;;;;;11.10;8.27;;;10.50;78.50;;;;;;5051054;28;20052;-67
2023/04/19 02:35:53;;;;;;;11.75;8.27;;;10.60;78.40;;;;;;5033253;28;20446;-68
2023/04/19 02:38:19;;;;;;;10.73;8.45;;;10.60;78.40;;;;;;5050676;28;20112;-68
2023/04/19 02:40:44;;;;;;;10.27;7.93;;;10.60;78.50;;;;;;5038229;28;20033;-68
2023/04/19 02:43:10;;;;;;;11.02;8.43;;;10.60;78.50;;;;;;5069428;28;20096;-67
2023/04/19 02:45:36;;;;;;;10.00;7.38;;;10.60;78.60;;;;;;5054067;28;20075;-69
2023/04/19 02:48:01;;;;;;;10.15;7.70;;;10.70;78.30;;;;;;5051055;28;20039;-68
2023/04/19 02:50:27;;;;;;;10.73;7.30;;;10.60;78.10;;;;;;5050565;28;20034;-66
2023/04/19 02:52:52;;;;;;;9.55;8.02;;;10.70;78.20;;;;;;5065826;28;20028;-66
2023/04/19 02:55:18;;;;;;;10.48;7.57;;;10.60;78.10;;;;;;5036910;28;20498;-68
2023/04/19 02:57:43;;;;;;;9.55;7.80;;;10.70;78.20;;;;;;5049715;28;20078;-68
2023/04/19 03:00:09;;;;;;;10.15;7.75;;;10.60;78.00;;;;;;5058562;28;20063;-68
2023/04/19 03:02:36;;;;;;;8.88;7.20;;;10.60;77.90;;;;;;5055213;28;20037;-67
2023/04/19 03:05:02;;;;;;;8.88;7.00;;;10.60;77.90;;;;;;5050423;28;20025;-68
2023/04/19 03:07:28;;;;;;;7.88;6.40;;;10.70;77.70;;;;;;5053223;28;20431;-68
2023/04/19 03:09:54;;;;;;;9.25;7.30;;;10.70;77.50;;;;;;5032467;28;20131;-68
2023/04/19 03:12:19;;;;;;;8.80;7.22;;;10.80;77.30;;;;;;5055434;28;20037;-67
2023/04/19 03:14:45;;;;;;;11.40;8.27;;;10.80;77.20;;;;;;5053473;28;20029;-68
2023/04/19 03:17:10;;;;;;;10.40;7.50;;;10.80;77.20;;;;;;5049082;28;20035;-68
2023/04/19 03:19:36;;;;;;;8.10;6.55;;;10.80;77.30;;;;;;5065675;28;20017;-67
2023/04/19 03:22:01;;;;;;;10.98;7.60;;;10.80;77.00;;;;;;5057089;28;20085;-68
2023/04/19 03:24:30;;;;;;;9.30;7.18;;;10.80;77.00;;;;;;5050109;28;20356;-67
2023/04/19 03:26:56;;;;;;;10.60;7.10;;;10.80;76.90;;;;;;5053110;28;20013;-67
2023/04/19 03:29:22;;;;;;;10.18;7.95;;;10.80;76.90;;;;;;5051400;28;20051;-68
2023/04/19 03:31:47;;;;;;;8.75;6.93;;;10.80;76.90;;;;;;5056279;28;20052;-67
2023/04/19 03:34:13;;;;;;;10.75;6.70;;;10.80;76.90;;;;;;5050257;28;20045;-67
2023/04/19 03:36:39;;;;;;;8.70;7.18;;;10.80;76.80;;;;;;5050325;28;20074;-67
2023/04/19 03:39:06;;;;;;;9.48;7.57;;;10.70;76.70;;;;;;5053105;28;20021;-67
2023/04/19 03:41:32;;;;;;;10.27;7.50;;;10.70;76.70;;;;;;5055490;28;20064;-67
2023/04/19 03:43:58;;;;;;;11.43;7.72;;;10.70;76.80;;;;;;5050941;28;20020;-68
2023/04/19 03:46:24;;;;;;;9.13;6.80;;;10.60;76.80;;;;;;5054503;28;20391;-67
2023/04/19 03:48:50;;;;;;;10.07;6.78;;;10.70;76.60;;;;;;5052130;28;20033;-69
2023/04/19 03:51:16;;;;;;;9.23;6.90;;;10.60;76.50;;;;;;5052954;28;20478;-69
2023/04/19 03:53:41;;;;;;;10.05;6.63;;;10.60;76.60;;;;;;5054037;28;20082;-68
2023/04/19 03:56:07;;;;;;;9.27;6.85;;;10.60;76.70;;;;;;5049626;28;20099;-67
2023/04/19 03:58:33;;;;;;;7.72;6.10;;;10.50;76.60;;;;;;5063385;28;20129;-68
2023/04/19 04:01:00;;;;;;;8.82;6.43;;;10.50;76.60;;;;;;5044745;28;20029;-69
2023/04/19 04:03:25;;;;;;;8.48;6.47;;;10.40;76.50;;;;;;5050124;28;20422;-69
2023/04/19 04:05:51;;;;;;;10.05;7.28;;;10.40;76.40;;;;;;5052237;28;20029;-70
2023/04/19 04:08:16;;;;;;;8.30;6.35;;;10.40;76.10;;;;;;5053417;28;20491;-68
2023/04/19 04:10:42;;;;;;;7.60;6.72;;;10.30;76.00;;;;;;5054147;28;20036;-67
2023/04/19 04:13:08;;;;;;;9.90;6.70;;;10.30;76.00;;;;;;5053850;28;20036;-68
2023/04/19 04:15:33;;;;;;;7.53;5.97;;;10.30;75.80;;;;;;5036041;28;20055;-68
2023/04/19 04:17:59;;;;;;;7.32;6.40;;;10.30;75.90;;;;;;5053642;28;20025;-69
2023/04/19 04:20:24;;;;;;;8.88;6.18;;;10.30;75.80;;;;;;5067788;28;20025;-68
2023/04/19 04:22:50;;;;;;;9.75;6.40;;;10.20;75.60;;;;;;5053851;28;20033;-67
2023/04/19 04:25:16;;;;;;;8.15;5.90;;;10.20;75.60;;;;;;5071047;28;20035;-69
2023/04/19 04:27:42;;;;;;;7.05;5.40;;;10.20;75.60;;;;;;5065922;28;20060;-69
2023/04/19 04:30:09;;;;;;;6.63;5.43;;;10.20;75.50;;;;;;5073577;28;20471;-68
2023/04/19 04:32:34;;;;;;;7.03;5.53;;;10.20;75.30;;;;;;5055183;28;20048;-67
2023/04/19 04:35:04;;;;;;;7.57;5.53;;;10.20;75.30;;;;;;5053171;28;20025;-66
2023/04/19 04:37:34;;;;;;;8.05;5.30;;;10.20;75.30;;;;;;5040043;28;20028;-67
2023/04/19 04:40:00;;;;;;;5.97;5.10;;;10.20;75.20;;;;;;5053395;28;20096;-67
2023/04/19 04:42:26;;;;;;;8.77;5.75;;;10.20;75.20;;;;;;5053952;28;20506;-67
2023/04/19 04:44:52;;;;;;;8.63;5.80;;;10.10;75.30;;;;;;5045766;28;20036;-67
2023/04/19 04:47:19;;;;;;;7.28;5.10;;;10.10;75.30;;;;;;5053403;28;20031;-67
2023/04/19 04:49:45;;;;;;;6.88;5.60;;;10.10;75.50;;;;;;5056921;28;20087;-67
2023/04/19 04:52:11;;;;;;;6.30;4.90;;;10.10;75.50;;;;;;5036744;28;20033;-68
2023/04/19 04:54:36;;;;;;;8.57;5.95;;;10.10;75.50;;;;;;5033399;28;20112;-67
2023/04/19 04:57:02;;;;;;;6.10;5.22;;;10.10;75.50;;;;;;5050810;28;20028;-67
2023/04/19 04:59:28;;;;;;;7.55;5.20;;;10.00;75.40;;;;;;5051583;28;20028;-66
2023/04/19 05:01:54;;;;;;;8.32;6.38;;;10.00;75.40;;;;;;5050963;28;20028;-67
2023/04/19 05:04:19;;;;;;;7.20;5.43;;;9.90;75.50;;;;;;5051507;28;20033;-67
2023/04/19 05:06:48;;;;;;;7.80;5.95;;;9.90;75.60;;;;;;5051525;28;20028;-67
2023/04/19 05:09:14;;;;;;;7.28;6.05;;;9.80;75.60;;;;;;5031742;28;20029;-67
2023/04/19 05:11:39;;;;;;;7.90;6.40;;;9.80;75.70;;;;;;5050157;28;20035;-67
2023/04/19 05:14:05;;;;;;;8.77;6.22;;;9.70;75.50;;;;;;5049747;28;20021;-68
2023/04/19 05:16:31;;;;;;;8.52;5.38;;;9.70;75.50;;;;;;5049133;28;20040;-67
2023/04/19 05:18:57;;;;;;;7.70;5.65;;;9.70;75.40;;;;;;5050691;28;20106;-67
2023/04/19 05:21:22;;;;;;;6.28;5.38;;;9.80;75.30;;;;;;5048320;28;20658;-67
2023/04/19 05:23:48;;;;;;;9.65;5.78;;;9.80;75.00;;;;;;5050833;28;20033;-67
2023/04/19 05:26:14;;;;;;;7.75;6.05;;;9.90;74.80;;;;;;5050205;28;20033;-67
2023/04/19 05:28:41;;;;;;;7.25;5.15;;;9.90;74.70;;;;;;5050119;28;20035;-69
2023/04/19 05:31:10;;;;;;;9.82;6.28;;;10.20;74.70;;;;;;5031673;28;20036;-67
2023/04/19 05:33:35;;;;;;;7.10;5.70;;;10.60;73.10;;;;;;5049597;28;20022;-66
2023/04/19 05:36:01;;;;;;;7.40;5.85;;;10.60;72.00;;;;;;5050502;28;20032;-67
2023/04/19 05:38:26;;;;;;;6.80;5.40;;;10.50;71.30;;;;;;5051367;28;20096;-68
2023/04/19 05:40:52;;;;;;;9.07;5.95;;;10.40;71.50;;;;;;5053607;28;20021;-67
2023/04/19 05:43:17;;;;;;;7.07;5.38;;;10.40;71.40;;;;;;5051042;28;20029;-67
2023/04/19 05:45:43;;;;;;;5.45;4.60;;;10.30;71.40;;;;;;5045696;28;20037;-67
2023/04/19 05:48:08;;;;;;;7.65;5.80;;;10.40;71.30;;;;;;5049095;28;20032;-68
2023/04/19 05:50:35;;;;;;;7.95;5.50;;;10.40;70.90;;;;;;5033315;28;20033;-65
2023/04/19 05:53:01;;;;;;;6.82;5.18;;;10.40;70.60;;;;;;5050280;28;20037;-66
2023/04/19 05:55:27;;;;;;;6.80;5.18;;;10.40;70.20;;;;;;5049976;28;20384;-68
2023/04/19 05:57:52;;;;;;;8.43;6.03;;;10.30;69.80;;;;;;5050771;28;20391;-65
2023/04/19 06:00:18;;;;;;;7.63;5.85;;;10.20;69.30;;;;;;5050380;28;20399;-66
2023/04/19 06:02:43;;;;;;;7.22;5.45;;;10.10;68.70;;;;;;5050297;28;20044;-66
2023/04/19 06:05:09;;;;;;;7.35;5.50;;;10.10;68.40;;;;;;5050623;28;20032;-67
2023/04/19 06:07:35;;;;;;;8.80;5.75;;;10.10;68.10;;;;;;5050622;28;20028;-65
2023/04/19 06:10:00;;;;;;;7.43;5.22;;;10.20;68.20;;;;;;5051141;28;20039;-66
2023/04/19 06:12:26;;;;;;;9.73;5.93;;;10.30;67.20;;;;;;5054434;28;20104;-65
2023/04/19 06:14:52;;;;;;;7.28;5.00;;;10.50;66.00;;;;;;5048949;28;20021;-67
2023/04/19 06:17:22;;;;;;;7.90;5.57;;;10.80;66.00;;;;;;5050859;28;20017;-66
2023/04/19 06:19:48;;;;;;;7.55;5.63;;;12.50;64.00;;;;;;5051123;28;20032;-67
2023/04/19 06:22:13;;;;;;;8.63;5.55;;;13.50;57.10;;;;;;5049003;28;20088;-66
2023/04/19 06:24:39;;;;;;;6.53;4.40;;;14.10;56.40;;;;;;5053073;28;20029;-66
2023/04/19 06:27:04;;;;;;;6.15;4.90;;;15.70;55.00;;;;;;5051234;28;20017;-67
2023/04/19 06:29:30;;;;;;;5.82;4.80;;;17.00;51.50;;;;;;5050769;28;20395;-67
2023/04/19 06:31:56;;;;;;;6.60;4.97;;;17.70;48.30;;;;;;5047257;28;20029;-69
2023/04/19 06:34:21;;;;;;;10.32;4.82;;;18.00;45.40;;;;;;5047786;28;20056;-67
2023/04/19 06:36:47;;;;;;;6.05;4.53;;;17.60;43.60;;;;;;5049195;28;20025;-66
2023/04/19 06:39:14;;;;;;;5.55;4.15;;;17.20;44.50;;;;;;5042238;28;20063;-66
2023/04/19 06:41:39;;;;;;;5.50;3.80;;;17.70;44.90;;;;;;5046135;28;20025;-67
2023/04/19 06:44:05;;;;;;;4.78;3.55;;;18.60;44.30;;;;;;5048941;28;20433;-69
2023/04/19 06:46:30;;;;;;;6.07;3.90;;;19.30;43.60;;;;;;5042038;28;20074;-67
2023/04/19 06:48:56;;;;;;;5.68;3.97;;;19.30;40.60;;;;;;5050816;28;20029;-68
2023/04/19 06:51:21;;;;;;;4.80;3.33;;;19.60;40.80;;;;;;5050499;28;20028;-67
2023/04/19 06:53:49;;;;;;;5.60;3.92;;;20.30;40.30;;;;;;5049548;28;20045;-66
2023/04/19 06:56:14;;;;;;;6.50;4.05;;;20.40;38.60;;;;;;5053642;28;20039;-69
2023/04/19 06:58:40;;;;;;;5.15;3.88;;;19.90;38.90;;;;;;5044203;28;20112;-66
2023/04/19 07:01:06;;;;;;;5.63;4.10;;;19.60;37.50;;;;;;5049965;28;20467;-67
2023/04/19 07:03:32;;;;;;;5.90;3.78;;;19.00;36.90;;;;;;5048506;28;20032;-67
2023/04/19 07:05:57;;;;;;;5.30;3.80;;;18.50;36.90;;;;;;5046298;28;20039;-67
2023/04/19 07:08:24;;;;;;;5.35;3.15;;;18.30;38.00;;;;;;5048958;28;20530;-67
2023/04/19 07:10:49;;;;;;;4.72;3.00;;;18.50;37.80;;;;;;5042517;28;20032;-67
2023/04/19 07:13:15;;;;;;;2.92;2.63;;;19.00;38.60;;;;;;5050959;28;20083;-65
2023/04/19 07:15:41;;;;;;;4.57;3.53;;;20.20;38.00;;;;;;5049377;28;20048;-66
2023/04/19 07:18:06;;;;;;;5.10;3.17;;;19.90;36.50;;;;;;5054475;28;20396;-65
2023/04/19 07:20:32;;;;;;;3.47;2.80;;;19.70;35.60;;;;;;5051314;28;20017;-65
2023/04/19 07:22:58;;;;;;;4.20;3.20;;;19.80;35.90;;;;;;5048887;28;20445;-65
2023/04/19 07:25:24;;;;;;;6.47;3.38;;;19.90;35.40;;;;;;5046630;28;20044;-66
2023/04/19 07:27:52;;;;;;;6.95;3.28;;;20.30;35.10;;;;;;5048658;28;20037;-66
2023/04/19 07:30:17;;;;;;;5.88;3.35;;;19.80;34.10;;;;;;5041095;28;20032;-67
2023/04/19 07:32:43;;;;;;;3.63;3.13;;;19.30;33.60;;;;;;5052981;28;20029;-67
2023/04/19 07:35:09;;;;;;;5.40;2.80;;;19.10;35.10;;;;;;5047203;28;20390;-66
2023/04/19 07:37:34;;;;;;;5.20;3.05;;;19.00;35.00;;;;;;5047487;28;20029;-66
2023/04/19 07:40:00;;;;;;;5.30;3.17;;;18.60;34.80;;;;;;5048607;28;20070;-67
2023/04/19 07:42:25;;;;;;;6.03;3.08;;;18.60;35.80;;;;;;5048831;28;20021;-65
2023/04/19 07:44:51;;;;;;;4.10;2.75;;;19.10;34.80;;;;;;5047242;28;20021;-66
2023/04/19 07:47:16;;;;;;;4.97;2.58;;;18.90;35.40;;;;;;5047821;28;20025;-67
2023/04/19 07:49:43;;;;;;;4.50;3.28;;;19.50;35.20;;;;;;5049123;28;20036;-68
2023/04/19 07:52:08;;;;;;;3.58;2.55;;;19.70;34.50;;;;;;5050875;28;20021;-67
2023/04/19 07:54:34;;;;;;;5.03;2.70;;;20.00;34.20;;;;;;5030495;28;20506;-68
2023/04/19 07:57:00;;;;;;;3.67;2.90;;;20.00;34.20;;;;;;5046097;28;20025;-65
2023/04/19 07:59:26;;;;;;;6.13;2.80;;;20.50;34.20;;;;;;5055410;28;20013;-68
2023/04/19 08:01:52;;;;;;;4.88;2.65;;;19.80;33.70;;;;;;5051551;28;20426;-64
2023/04/19 08:04:18;;;;;;;3.90;2.60;;;20.00;34.40;;;;;;5050618;28;20044;-65
2023/04/19 08:06:44;;;;;;;6.05;2.83;;;20.20;34.60;;;;;;5047621;28;20111;-66
2023/04/19 08:09:10;;;;;;;3.53;2.60;;;19.70;33.60;;;;;;5050437;28;20108;-66
2023/04/19 08:11:35;;;;;;;4.95;2.50;;;19.00;33.50;;;;;;5045055;28;20036;-66
2023/04/19 08:14:01;;;;;;;5.40;3.03;;;18.60;34.70;;;;;;5023318;28;20055;-68
2023/04/19 08:16:28;;;;;;;3.70;2.67;;;18.50;35.40;;;;;;5048117;28;20052;-67
2023/04/19 08:18:54;;;;;;;5.97;4.55;;;18.40;34.60;;;;;;5047872;28;20081;-67
2023/04/19 08:21:20;;;;;;;5.47;3.50;;;18.50;35.50;;;;;;5054344;28;20455;-67
2023/04/19 08:23:46;;;;;;;6.75;2.33;;;19.00;35.40;;;;;;5055456;28;20025;-68
2023/04/19 08:26:11;;;;;;;3.97;2.45;;;18.80;34.80;;;;;;5048538;28;20033;-67
2023/04/19 08:28:37;;;;;;;3.10;1.80;;;18.40;35.40;;;;;;5045139;28;20017;-67
2023/04/19 08:31:06;;;;;;;2.97;2.30;;;18.40;36.50;;;;;;5047607;28;20017;-68
2023/04/19 08:33:31;;;;;;;2.53;1.88;;;18.30;35.50;;;;;;5044682;28;20067;-68
2023/04/19 08:35:57;;;;;;;2.33;1.85;;;17.30;36.70;;;;;;5047037;28;20064;-67
2023/04/19 08:38:22;;;;;;;2.03;1.83;;;17.10;37.50;;;;;;5048368;28;20033;-67
2023/04/19 08:40:51;;;;;;;3.97;2.17;;;16.40;37.60;;;;;;5045957;28;20028;-67
2023/04/19 08:43:18;;;;;;;4.60;2.03;;;15.90;38.50;;;;;;5047706;28;20025;-66
2023/04/19 08:45:49;;;;;;;4.13;2.20;;;15.40;39.60;;;;;;5048020;28;20572;-66
2023/04/19 08:48:16;;;;;;;2.30;1.83;;;15.00;39.50;;;;;;5048622;28;20025;-68
2023/04/19 08:50:44;;;;;;;2.38;1.80;;;14.70;39.60;;;;;;5047751;28;20064;-67
2023/04/19 08:53:10;;;;;;;2.72;1.67;;;14.30;39.70;;;;;;5048339;28;20025;-68
2023/04/19 08:55:37;;;;;;;1.65;1.52;;;13.90;40.60;;;;;;5051053;28;20048;-68
2023/04/19 08:58:03;;;;;;;2.22;1.58;;;13.60;40.50;;;;;;5044560;28;20025;-68
2023/04/19 09:00:32;;;;;;;3.08;1.90;;;13.60;41.20;;;;;;5059119;28;20029;-68
2023/04/19 09:02:58;;;;;;;1.92;1.50;;;13.50;40.80;;;;;;5054106;28;20458;-68
2023/04/19 09:05:23;;;;;;;2.90;1.77;;;13.50;41.60;;;;;;5050280;28;20100;-69
2023/04/19 09:07:49;;;;;;;4.18;1.77;;;13.60;41.40;;;;;;5051630;28;20029;-67
2023/04/19 09:10:18;;;;;;;2.95;1.60;;;13.60;40.80;;;;;;5050657;28;20021;-68
2023/04/19 09:13:02;;;;;;;2.78;1.70;;;13.40;40.80;;;;;;5051714;28;20122;-65
2023/04/19 09:15:38;;;;;;;1.90;1.50;;;13.40;41.60;;;;;;5051868;28;20095;-67
2023/04/19 09:18:06;;;;;;;3.60;1.95;;;13.60;42.00;;;;;;5049040;28;20529;-66
2023/04/19 09:20:36;;;;;;;3.85;1.90;;;13.60;41.70;;;;;;5052403;28;20439;-65
2023/04/19 09:23:04;;;;;;;4.10;2.00;;;13.50;42.10;;;;;;5075904;28;20407;-66
2023/04/19 09:25:30;;;;;;;2.45;1.90;;;13.30;42.80;;;;;;5057211;28;20056;-67
2023/04/19 09:28:08;;;;;;;2.55;1.83;;;13.30;43.70;;;;;;5076513;28;20029;-65
2023/04/19 09:30:33;;;;;;;4.50;1.85;;;13.40;43.30;;;;;;5045210;28;20426;-68
2023/04/19 09:32:59;;;;;;;2.47;1.70;;;13.40;42.20;;;;;;5048238;28;20087;-65
2023/04/19 09:35:42;;;;;;;2.00;1.52;;;13.30;41.60;;;;;;5049550;28;20029;-66
2023/04/19 09:38:11;;;;;;;5.07;1.88;;;13.20;41.30;;;;;;5047152;28;20021;-64
2023/04/19 09:40:38;;;;;;;2.13;1.70;;;13.10;41.80;;;;;;5050512;28;20021;-67
2023/04/19 09:43:04;;;;;;;2.13;1.80;;;13.10;41.50;;;;;;5052057;28;20099;-67
2023/04/19 09:45:43;;;;;;;2.63;1.80;;;13.10;41.70;;;;;;5045850;28;20112;-66
2023/04/19 09:48:10;;;;;;;2.70;1.77;;;13.10;42.10;;;;;;5048666;28;20200;-65
2023/04/19 09:50:50;;;;;;;2.40;1.70;;;13.20;41.90;;;;;;5048688;28;20573;-66
2023/04/19 09:53:19;;;;;;;2.35;1.85;;;13.10;41.70;;;;;;5050021;28;20090;-65
2023/04/19 09:55:46;;;;;;;3.35;1.80;;;13.10;42.20;;;;;;5050615;28;20021;-67
2023/04/19 09:58:12;;;;;;;3.58;1.88;;;13.20;41.50;;;;;;5050914;28;20045;-68
2023/04/19 10:00:39;;;;;;;2.25;1.70;;;13.20;41.00;;;;;;5048223;28;20067;-66
2023/04/19 10:03:06;;;;;;;2.70;1.50;;;13.20;41.70;;;;;;5045703;28;20109;-65
2023/04/19 10:05:32;;;;;;;2.58;1.60;;;13.30;42.10;;;;;;5047035;28;20033;-66
2023/04/19 10:08:01;;;;;;;2.58;1.88;;;13.30;41.90;;;;;;5053841;28;20021;-65
2023/04/19 10:10:29;;;;;;;2.28;1.52;;;13.50;41.90;;;;;;5053215;28;20070;-66
2023/04/19 10:12:58;;;;;;;2.90;1.70;;;13.60;42.00;;;;;;5061789;28;20487;-67
2023/04/19 10:15:26;;;;;;;2.80;1.70;;;13.60;41.20;;;;;;5050765;28;20040;-66
2023/04/19 10:17:52;;;;;;;3.10;2.00;;;13.60;40.20;;;;;;5049205;28;20025;-66
2023/04/19 10:20:31;;;;;;;2.38;1.80;;;13.50;39.80;;;;;;5052607;28;20025;-67
2023/04/19 10:22:57;;;;;;;3.05;2.00;;;13.60;40.00;;;;;;5050791;28;20024;-66
2023/04/19 10:25:28;;;;;;;2.95;2.08;;;13.60;40.30;;;;;;5047317;28;20037;-65
2023/04/19 10:27:54;;;;;;;2.70;2.30;;;13.60;39.40;;;;;;5047015;28;20124;-66
2023/04/19 10:30:27;;;;;;;3.70;2.17;;;13.50;39.90;;;;;;5050723;28;20100;-65
2023/04/19 10:33:01;;;;;;;3.15;1.95;;;13.50;40.30;;;;;;5061070;28;20297;-66
2023/04/19 10:35:37;;;;;;;3.58;1.95;;;13.50;40.10;;;;;;5036844;28;20025;-66
2023/04/19 10:38:15;;;;;;;2.95;2.10;;;13.50;40.60;;;;;;5030980;28;20021;-66
2023/04/19 10:41:00;;;;;;;2.53;1.80;;;13.60;40.60;;;;;;5036556;28;20417;-67
2023/04/19 10:43:26;;;;;;;2.63;1.90;;;13.60;40.70;;;;;;5051087;28;20024;-68
2023/04/19 10:45:52;;;;;;;4.25;2.05;;;13.80;41.50;;;;;;5047991;28;20071;-67
2023/04/19 10:48:32;;;;;;;4.13;2.00;;;14.00;41.10;;;;;;5045968;28;20017;-67
2023/04/19 10:51:15;;;;;;;4.75;2.33;;;14.10;40.10;;;;;;5049326;28;20029;-67
2023/04/19 10:54:04;;;;;;;3.72;2.47;;;14.20;39.30;;;;;;5041600;28;20033;-66
2023/04/19 10:56:33;;;;;;;7.07;2.10;;;14.20;39.60;;;;;;5047587;28;20028;-65
2023/04/19 11:01:44;;;;;;;3.05;2.03;;;14.20;39.50;;;;;;5045721;28;20090;-67
2023/04/19 11:04:12;;;;;;;2.65;2.20;;;14.10;38.60;;;;;;5046777;28;20025;-66
2023/04/19 11:06:51;;;;;;;3.15;2.20;;;14.10;39.60;;;;;;5044371;28;20025;-66
2023/04/19 11:09:33;;;;;;;4.10;2.45;;;14.30;39.90;;;;;;5052173;28;20048;-68
2023/04/19 11:12:07;;;;;;;3.90;2.35;;;14.30;37.80;;;;;;5049750;28;20039;-66
2023/04/19 11:14:35;;;;;;;2.88;2.28;;;14.30;38.10;;;;;;5063910;28;20414;-67
2023/04/19 11:17:13;;;;;;;3.45;2.30;;;14.30;37.90;;;;;;5048585;28;20399;-67
2023/04/19 11:19:38;;;;;;;2.90;2.00;;;14.40;37.70;;;;;;5041077;28;20078;-67
2023/04/19 11:22:04;;;;;;;2.97;2.30;;;14.80;38.00;;;;;;5038359;28;20621;-66
2023/04/19 11:24:30;;;;;;;3.20;2.15;;;14.80;34.90;;;;;;5022369;28;20383;-68
2023/04/19 11:26:56;;;;;;;2.70;2.20;;;14.80;34.50;;;;;;5040475;28;20044;-67
2023/04/19 11:29:22;;;;;;;4.75;2.20;;;15.00;34.50;;;;;;5047019;28;20067;-67
2023/04/19 11:31:47;;;;;;;3.92;2.50;;;15.10;33.70;;;;;;5037126;28;20033;-67
2023/04/19 11:34:13;;;;;;;3.67;2.33;;;15.20;33.70;;;;;;5042664;28;20117;-66
2023/04/19 11:36:50;;;;;;;3.88;2.28;;;15.30;34.20;;;;;;5048718;28;20033;-64
2023/04/19 11:39:15;;;;;;;3.20;2.30;;;15.30;34.10;;;;;;5041325;28;20100;-65
2023/04/19 11:41:41;;;;;;;3.63;2.20;;;15.20;33.80;;;;;;5026445;28;20109;-65
2023/04/19 11:44:18;;;;;;;2.67;2.33;;;15.30;34.00;;;;;;5049103;28;20033;-66
2023/04/19 11:46:56;;;;;;;3.70;2.10;;;15.40;34.60;;;;;;5049375;28;20047;-66
2023/04/19 11:49:30;;;;;;;5.30;2.30;;;15.60;34.40;;;;;;5047671;28;20029;-65
2023/04/19 11:52:00;;;;;;;3.90;2.33;;;15.60;33.70;;;;;;5032416;28;20533;-67
2023/04/19 11:54:26;;;;;;;3.20;2.15;;;15.70;33.20;;;;;;5050159;28;20471;-66
2023/04/19 11:57:08;;;;;;;3.95;2.20;;;15.80;33.30;;;;;;5044357;28;20032;-67
2023/04/19 11:59:35;;;;;;;2.83;2.30;;;15.90;33.10;;;;;;5047098;28;20357;-67
2023/04/19 12:02:19;;;;;;;4.55;2.00;;;15.90;32.80;;;;;;5043294;28;20026;-66
2023/04/19 12:04:44;;;;;;;5.25;2.38;;;16.10;33.60;;;;;;5040202;28;20033;-67
2023/04/19 12:07:10;;;;;;;4.43;2.30;;;16.10;32.50;;;;;;5040211;28;20120;-67
2023/04/19 12:09:35;;;;;;;4.65;2.42;;;16.00;32.60;;;;;;5037016;28;20021;-65
2023/04/19 12:12:02;;;;;;;3.63;2.20;;;16.10;32.60;;;;;;5040632;28;20033;-66
2023/04/19 12:14:28;;;;;;;2.78;2.30;;;16.20;32.30;;;;;;5038381;28;20384;-66
2023/04/19 12:17:02;;;;;;;2.83;2.30;;;16.20;31.60;;;;;;5045930;28;20495;-65
2023/04/19 12:19:34;;;;;;;2.50;2.20;;;16.30;31.30;;;;;;5043678;28;20021;-68
2023/04/19 12:22:06;;;;;;;;;;;16.40;32.10;;;;;;5043472;28;20024;-67
2023/04/19 12:24:32;;;;;;;2.97;2.20;;;16.40;32.00;;;;;;5044563;28;19909;-66
2023/04/19 12:26:58;;;;;;;5.13;2.60;;;16.30;31.80;;;;;;5046404;28;20029;-66
2023/04/19 12:29:23;;;;;;;5.90;2.80;;;16.30;31.80;;;;;;5049446;28;20035;-67
2023/04/19 12:31:49;;;;;;;3.17;2.40;;;16.20;31.90;;;;;;5038311;28;20033;-66
2023/04/19 12:34:14;;;;;;;2.85;2.55;;;16.30;32.70;;;;;;5047027;28;20025;-66
2023/04/19 12:36:40;;;;;;;4.60;2.40;;;16.40;32.30;;;;;;5051806;28;20025;-66
2023/04/19 12:39:06;;;;;;;4.05;2.70;;;16.50;33.30;;;;;;5051084;28;20021;-66
2023/04/19 12:41:31;;;;;;;5.10;3.15;;;16.70;33.60;;;;;;5054192;28;20320;-67
2023/04/19 12:43:57;;;;;;;4.03;2.42;;;16.90;32.40;;;;;;5057869;28;20025;-65
2023/04/19 12:46:22;;;;;;;4.00;2.55;;;16.80;32.80;;;;;;5051651;28;20057;-65